Apple Valley, Utah
Current Conditions -  °F | °C
As of 12:15 PM on Tuesday 21 Oct 2014 (Local Time) from KAZC Reporting Station
Scattered Clouds Scattered Clouds  
Wind Chill: 74°   Ceiling: Unl
Heat Index: 74°   Visibility: 10mi
Dew Point: 45°   Wind: 5mph
Humidity: 36%   Direction: 190°S
Pressure: 30.07"   Gusts: NA
Location:  37.2274°N, 113.139°W
Report Text: KAZC 211815Z AUTO 19004KT 10SM SCT060 23/07 A3007 RMK AO2 T02330073
Loading
Personal Weather Stations






























Interactive Weather Map
Tropical Storm Tracking
New forecast layout! Learn more

10-Day Weather Forecast

Advertisements
Track Severe Weather on mobile